Time;durP1;ratioP1;P1;durP2;ratioP2;P2;SDS_P1;SDS_P2;PMS_P1;PMS_P2;Temp;Humidity;BMP_temperature;BMP_pressure;BME280_temperature;BME280_humidity;BME280_pressure;Samples;Min_cycle;Max_cycle;Signal;HPM_P1;HPM_P2
2022/08/01 00:00:11;;;;;;;4.10;2.90;;;27.10;35.30;;;;;;4994992;28;20501;-46
2022/08/01 00:02:38;;;;;;;3.50;2.53;;;27.10;35.30;;;;;;4994723;28;20179;-46
2022/08/01 00:05:05;;;;;;;3.20;2.30;;;27.10;35.40;;;;;;4994547;28;20918;-45
2022/08/01 00:07:32;;;;;;;3.90;2.80;;;27.10;36.00;;;;;;4994080;28;20877;-45
2022/08/01 00:09:58;;;;;;;2.97;2.67;;;27.10;35.40;;;;;;4994857;28;20418;-45
2022/08/01 00:12:24;;;;;;;3.20;2.30;;;27.00;35.30;;;;;;4994639;28;20450;-45
2022/08/01 00:14:49;;;;;;;5.00;3.47;;;27.00;35.10;;;;;;4994469;28;20540;-45
2022/08/01 00:17:15;;;;;;;5.20;3.20;;;27.00;34.90;;;;;;4994067;28;20199;-44
2022/08/01 00:19:41;;;;;;;4.87;2.90;;;27.00;34.80;;;;;;4994340;28;20179;-46
2022/08/01 00:22:07;;;;;;;3.57;3.10;;;27.00;34.90;;;;;;4994239;28;20178;-45
2022/08/01 00:24:33;;;;;;;4.33;3.27;;;27.00;35.10;;;;;;4994361;28;20586;-46
2022/08/01 00:26:59;;;;;;;3.17;2.70;;;27.00;35.20;;;;;;4993934;28;20310;-45
2022/08/01 00:29:24;;;;;;;5.23;2.63;;;27.00;35.20;;;;;;4994254;28;20501;-46
2022/08/01 00:31:50;;;;;;;3.50;2.70;;;27.00;35.30;;;;;;4994252;28;20214;-45
2022/08/01 00:34:16;;;;;;;3.33;2.80;;;27.00;35.50;;;;;;4994312;28;20183;-45
2022/08/01 00:36:42;;;;;;;3.80;2.80;;;27.00;35.50;;;;;;4994005;28;20671;-45
2022/08/01 00:39:07;;;;;;;3.60;2.37;;;26.90;34.90;;;;;;4993940;28;20177;-46
2022/08/01 00:41:34;;;;;;;3.80;2.70;;;26.90;35.00;;;;;;4993886;28;20207;-46
2022/08/01 00:44:04;;;;;;;3.87;2.93;;;26.90;35.70;;;;;;4993874;28;20543;-45
2022/08/01 00:46:30;;;;;;;3.33;2.73;;;26.90;35.10;;;;;;4993652;28;20433;-45
2022/08/01 00:48:56;;;;;;;3.60;2.60;;;26.80;35.30;;;;;;4993321;28;20422;-46
2022/08/01 00:51:22;;;;;;;3.43;3.10;;;26.80;35.50;;;;;;4993632;28;20418;-45
2022/08/01 00:53:50;;;;;;;3.50;2.77;;;26.70;35.40;;;;;;4992518;28;20414;-45
2022/08/01 00:56:16;;;;;;;2.90;2.10;;;26.70;35.20;;;;;;4993321;28;20403;-45
2022/08/01 00:58:43;;;;;;;6.07;3.57;;;26.70;35.30;;;;;;4993877;28;20837;-45
2022/08/01 01:01:09;;;;;;;4.70;2.83;;;26.60;35.30;;;;;;4993509;28;20414;-45
2022/08/01 01:03:35;;;;;;;3.10;2.40;;;26.60;35.40;;;;;;4992637;28;20418;-45
2022/08/01 01:06:17;;;;;;;3.40;2.67;;;26.50;35.50;;;;;;4993076;28;20415;-45
2022/08/01 01:08:51;;;;;;;3.93;2.80;;;26.50;35.60;;;;;;4993456;28;20198;-45
2022/08/01 01:11:25;;;;;;;3.53;2.40;;;26.40;35.60;;;;;;4993393;28;20398;-44
2022/08/01 01:13:59;;;;;;;3.10;2.43;;;26.40;35.80;;;;;;4993676;28;20390;-45
2022/08/01 01:16:26;;;;;;;3.90;2.63;;;26.30;35.80;;;;;;5015116;23;20504;-47
2022/08/01 01:18:54;;;;;;;3.50;2.43;;;26.30;35.80;;;;;;5012778;28;20436;-48
2022/08/01 01:21:20;;;;;;;3.33;2.43;;;26.30;35.90;;;;;;5012880;28;20397;-47
2022/08/01 01:24:18;;;;;;;2.93;2.63;;;26.20;36.00;;;;;;5012841;28;20397;-47
2022/08/01 01:27:06;;;;;;;3.47;2.70;;;26.20;36.10;;;;;;5012573;28;20191;-48
2022/08/01 01:29:40;;;;;;;2.80;2.40;;;26.20;36.20;;;;;;5012857;28;20467;-47
2022/08/01 01:32:33;;;;;;;3.70;2.60;;;26.10;36.40;;;;;;5012747;28;20484;-47
2022/08/01 01:35:03;;;;;;;3.93;3.10;;;26.00;36.60;;;;;;5012712;28;20428;-47
2022/08/01 01:37:31;;;;;;;2.57;2.20;;;26.00;36.60;;;;;;5012372;28;20975;-47
2022/08/01 01:39:59;;;;;;;4.20;3.23;;;25.90;36.50;;;;;;5012771;28;20406;-47
2022/08/01 01:42:26;;;;;;;3.03;2.30;;;25.90;36.70;;;;;;5012806;28;20405;-48
2022/08/01 01:44:54;;;;;;;4.47;2.60;;;25.90;36.80;;;;;;5012487;28;20436;-46
2022/08/01 01:47:21;;;;;;;3.47;2.83;;;25.80;37.00;;;;;;5012290;28;20483;-48
2022/08/01 01:49:48;;;;;;;4.33;3.10;;;25.80;37.10;;;;;;5012506;28;20419;-46
2022/08/01 01:52:17;;;;;;;3.47;2.93;;;25.80;37.10;;;;;;5012488;28;20460;-48
2022/08/01 01:54:47;;;;;;;3.53;2.63;;;25.80;37.20;;;;;;5012513;28;20428;-48
2022/08/01 01:57:15;;;;;;;3.53;2.97;;;25.80;37.10;;;;;;5012335;28;20405;-47
2022/08/01 01:59:42;;;;;;;2.93;2.47;;;25.80;37.20;;;;;;5011511;28;20406;-46
2022/08/01 02:02:09;;;;;;;3.17;2.70;;;25.80;37.10;;;;;;5012523;28;20416;-46
2022/08/01 02:04:42;;;;;;;3.57;2.80;;;25.80;37.20;;;;;;4994453;28;20822;-48
2022/08/01 02:07:10;;;;;;;4.90;2.50;;;25.80;37.30;;;;;;5012250;28;20467;-48
2022/08/01 02:09:37;;;;;;;3.63;2.60;;;25.80;37.30;;;;;;5012237;28;20408;-48
2022/08/01 02:12:05;;;;;;;4.43;2.80;;;25.80;37.50;;;;;;5012114;28;20452;-46
2022/08/01 02:14:36;;;;;;;3.40;3.00;;;25.80;37.50;;;;;;5012121;28;20412;-47
2022/08/01 02:17:05;;;;;;;3.53;2.60;;;25.80;37.50;;;;;;5011953;28;20398;-48
2022/08/01 02:19:33;;;;;;;3.10;2.33;;;25.80;37.40;;;;;;5012298;28;20436;-47
2022/08/01 02:22:30;;;;;;;3.03;2.40;;;25.80;37.60;;;;;;5012038;28;20406;-45
2022/08/01 02:25:02;;;;;;;3.10;2.60;;;25.80;37.80;;;;;;5012058;28;20410;-47
2022/08/01 02:27:40;;;;;;;3.97;2.80;;;25.80;37.80;;;;;;5011783;28;20893;-47
2022/08/01 02:30:10;;;;;;;3.30;2.53;;;25.70;37.70;;;;;;5012221;28;20753;-46
2022/08/01 02:32:44;;;;;;;6.03;3.57;;;25.80;37.50;;;;;;5012091;28;20503;-46
2022/08/01 02:35:13;;;;;;;3.63;2.77;;;25.80;37.70;;;;;;5011879;28;20413;-45
2022/08/01 02:37:41;;;;;;;4.63;3.40;;;25.80;37.80;;;;;;5011801;28;20406;-47
2022/08/01 02:40:10;;;;;;;4.20;3.00;;;25.80;38.00;;;;;;5011862;28;20762;-47
2022/08/01 02:42:38;;;;;;;3.30;2.60;;;25.70;38.00;;;;;;5012141;28;21001;-46
2022/08/01 02:45:08;;;;;;;4.40;3.03;;;25.70;37.90;;;;;;5011884;28;20422;-47
2022/08/01 02:47:36;;;;;;;6.67;3.10;;;25.80;37.80;;;;;;5011752;28;20500;-48
2022/08/01 02:50:02;;;;;;;3.50;3.20;;;25.80;38.00;;;;;;5011787;28;20449;-47
2022/08/01 02:52:29;;;;;;;5.00;4.50;;;25.70;38.00;;;;;;5011811;28;20534;-47
2022/08/01 02:54:57;;;;;;;3.17;2.43;;;25.80;38.00;;;;;;5011771;28;20418;-47
2022/08/01 02:57:30;;;;;;;3.10;2.80;;;25.70;38.00;;;;;;5011561;28;20467;-48
2022/08/01 02:59:58;;;;;;;4.10;2.97;;;25.80;38.00;;;;;;5011954;28;20566;-48
2022/08/01 03:02:26;;;;;;;3.83;3.27;;;25.80;38.70;;;;;;5011949;28;20822;-46
2022/08/01 03:04:53;;;;;;;3.63;3.10;;;25.80;38.10;;;;;;5011684;28;20500;-48
2022/08/01 03:07:20;;;;;;;3.77;2.70;;;25.70;38.10;;;;;;5011447;28;20493;-47
2022/08/01 03:09:48;;;;;;;3.20;2.90;;;25.70;38.10;;;;;;5011719;28;21067;-48
2022/08/01 03:12:25;;;;;;;4.70;3.60;;;25.70;38.40;;;;;;5015260;28;20518;-49
2022/08/01 03:14:56;;;;;;;3.67;3.00;;;25.70;38.50;;;;;;5014989;28;20429;-47
2022/08/01 03:17:24;;;;;;;3.60;3.00;;;25.70;38.30;;;;;;5014919;28;20394;-48
2022/08/01 03:19:52;;;;;;;3.50;2.83;;;25.60;38.60;;;;;;5014969;28;20414;-48
2022/08/01 03:22:20;;;;;;;3.50;2.50;;;25.60;38.50;;;;;;5015256;28;20746;-49
2022/08/01 03:24:50;;;;;;;4.60;3.37;;;25.60;38.50;;;;;;5014907;28;20409;-48
2022/08/01 03:27:17;;;;;;;3.70;3.03;;;25.60;38.30;;;;;;5014704;28;20434;-47
2022/08/01 03:29:45;;;;;;;5.20;4.67;;;25.60;38.30;;;;;;5014896;28;20414;-47
2022/08/01 03:32:12;;;;;;;2.80;2.17;;;25.60;38.20;;;;;;5014642;28;20437;-47
2022/08/01 03:34:39;;;;;;;3.60;3.07;;;25.60;38.30;;;;;;5014808;28;20468;-47
2022/08/01 03:37:16;;;;;;;3.70;2.77;;;25.60;38.40;;;;;;5014504;28;20408;-48
2022/08/01 03:40:28;;;;;;;4.20;3.17;;;25.60;38.20;;;;;;5014706;28;20405;-47
2022/08/01 03:43:02;;;;;;;3.30;2.53;;;25.60;38.10;;;;;;5014650;28;20402;-47
2022/08/01 03:45:34;;;;;;;5.07;3.17;;;25.60;38.00;;;;;;5014514;28;20476;-47
2022/08/01 03:48:03;;;;;;;3.70;3.23;;;25.60;38.00;;;;;;5014476;28;20428;-47
2022/08/01 03:50:33;;;;;;;3.90;3.13;;;25.60;38.10;;;;;;5014491;28;20416;-47
2022/08/01 03:53:01;;;;;;;3.50;2.83;;;25.70;38.00;;;;;;5014254;28;20496;-49
2022/08/01 03:55:29;;;;;;;4.97;3.50;;;25.70;38.00;;;;;;5014237;28;20425;-48
2022/08/01 03:57:56;;;;;;;5.20;3.30;;;25.70;37.80;;;;;;5014295;28;20485;-49
2022/08/01 04:00:24;;;;;;;5.00;3.40;;;25.70;37.90;;;;;;5014288;28;20413;-48
2022/08/01 04:02:50;;;;;;;4.60;2.50;;;25.80;37.80;;;;;;5014181;28;20410;-47
2022/08/01 04:05:17;;;;;;;3.80;2.70;;;25.80;37.80;;;;;;5014168;28;20480;-47
2022/08/01 04:07:47;;;;;;;3.70;2.90;;;25.80;37.70;;;;;;5013904;28;20917;-48
2022/08/01 04:10:13;;;;;;;4.27;3.00;;;25.80;37.70;;;;;;5014080;28;20402;-48
2022/08/01 04:12:39;;;;;;;4.50;3.37;;;25.80;37.70;;;;;;5013993;28;20449;-47
2022/08/01 04:15:06;;;;;;;4.00;3.23;;;25.80;37.70;;;;;;5013736;28;20205;-47
2022/08/01 04:17:32;;;;;;;4.60;3.30;;;25.80;37.60;;;;;;5013736;28;20224;-48
2022/08/01 04:19:58;;;;;;;3.60;2.73;;;25.80;37.70;;;;;;5013778;28;20398;-48
2022/08/01 04:22:23;;;;;;;4.87;3.30;;;25.80;37.70;;;;;;5013044;28;20422;-48
2022/08/01 04:24:53;;;;;;;5.40;2.50;;;25.80;37.80;;;;;;5013771;28;20166;-47
2022/08/01 04:27:25;;;;;;;3.50;2.90;;;25.80;37.80;;;;;;5013537;28;20260;-46
2022/08/01 04:29:54;;;;;;;4.63;3.47;;;25.80;37.80;;;;;;5013748;28;20468;-47
2022/08/01 04:32:23;;;;;;;4.70;2.80;;;25.80;38.50;;;;;;5013536;28;20449;-48
2022/08/01 04:34:50;;;;;;;4.50;2.80;;;25.80;37.90;;;;;;5013462;28;20402;-47
2022/08/01 04:37:16;;;;;;;4.60;3.40;;;25.90;37.90;;;;;;5013655;28;20809;-47
2022/08/01 04:39:44;;;;;;;4.80;3.10;;;25.90;37.70;;;;;;5013527;28;21071;-47
2022/08/01 04:42:11;;;;;;;4.30;3.07;;;25.90;37.80;;;;;;5013779;28;20414;-48
2022/08/01 04:44:37;;;;;;;3.37;2.60;;;25.90;38.00;;;;;;5013363;28;20401;-49
2022/08/01 04:47:05;;;;;;;4.37;2.97;;;25.90;37.80;;;;;;5013126;28;20418;-47
2022/08/01 04:49:34;;;;;;;3.47;3.10;;;26.00;38.00;;;;;;5013318;28;20421;-48
2022/08/01 04:52:00;;;;;;;3.97;2.70;;;26.00;37.90;;;;;;5013265;28;20441;-48
2022/08/01 04:54:27;;;;;;;3.70;3.27;;;25.90;37.40;;;;;;5013327;28;20406;-47
2022/08/01 04:57:03;;;;;;;4.40;2.70;;;26.00;37.70;;;;;;5013000;28;20785;-47
2022/08/01 04:59:39;;;;;;;4.30;3.57;;;26.00;37.80;;;;;;5013155;28;20406;-47
2022/08/01 05:02:28;;;;;;;6.03;3.20;;;25.90;37.60;;;;;;5013200;28;20412;-48
2022/08/01 05:04:54;;;;;;;3.77;3.07;;;26.00;38.50;;;;;;5013108;28;20444;-49
2022/08/01 05:07:21;;;;;;;4.03;2.63;;;26.00;38.00;;;;;;5012925;28;20523;-48
2022/08/01 05:09:46;;;;;;;3.40;2.90;;;25.90;37.60;;;;;;5012996;28;20905;-48
2022/08/01 05:12:12;;;;;;;5.70;3.90;;;26.00;38.10;;;;;;5012793;28;20559;-47
2022/08/01 05:14:38;;;;;;;5.33;3.33;;;26.00;38.30;;;;;;5013018;28;20177;-47
2022/08/01 05:17:06;;;;;;;3.17;2.50;;;26.00;38.50;;;;;;5012686;28;20178;-47
2022/08/01 05:19:36;;;;;;;6.73;3.93;;;26.00;38.40;;;;;;5012894;28;20967;-47
2022/08/01 05:22:04;;;;;;;4.03;3.30;;;26.00;39.00;;;;;;5013239;28;20750;-46
2022/08/01 05:24:32;;;;;;;2.70;2.40;;;26.00;38.80;;;;;;5013003;28;20413;-48
2022/08/01 05:26:58;;;;;;;8.50;3.27;;;26.00;39.20;;;;;;5012581;28;20437;-46
2022/08/01 05:29:24;;;;;;;4.70;2.80;;;26.00;39.40;;;;;;5013089;28;20413;-46
2022/08/01 05:31:51;;;;;;;3.80;2.53;;;26.00;39.40;;;;;;5012775;28;20453;-48
2022/08/01 05:34:18;;;;;;;3.67;2.90;;;26.00;39.80;;;;;;5013075;28;20414;-48
2022/08/01 05:36:44;;;;;;;3.30;2.60;;;26.00;39.60;;;;;;5012369;28;20426;-47
2022/08/01 05:39:10;;;;;;;3.10;2.30;;;26.00;39.70;;;;;;5012698;28;20401;-46
2022/08/01 05:41:36;;;;;;;3.53;2.83;;;26.00;40.00;;;;;;5012874;28;20821;-48
2022/08/01 05:44:03;;;;;;;4.20;3.20;;;26.10;40.20;;;;;;5012410;28;20177;-48
2022/08/01 05:46:30;;;;;;;3.33;2.57;;;26.20;40.50;;;;;;5012186;28;20433;-48
2022/08/01 05:48:57;;;;;;;7.13;2.80;;;26.20;40.30;;;;;;5012623;28;20410;-48
2022/08/01 05:51:23;;;;;;;2.80;2.27;;;26.30;40.60;;;;;;5012351;28;20437;-48
2022/08/01 05:53:48;;;;;;;3.30;2.60;;;26.30;40.20;;;;;;5012209;28;20528;-48
2022/08/01 05:56:14;;;;;;;4.57;2.50;;;26.40;40.20;;;;;;5011982;28;20432;-47
2022/08/01 05:58:40;;;;;;;3.53;2.93;;;26.30;40.40;;;;;;5012198;28;20202;-46
2022/08/01 06:01:06;;;;;;;3.23;2.50;;;26.40;40.30;;;;;;5012262;28;20419;-47
2022/08/01 06:03:33;;;;;;;3.57;2.47;;;26.40;40.20;;;;;;5012215;28;20425;-48
2022/08/01 06:05:59;;;;;;;3.70;2.60;;;26.40;40.20;;;;;;5011972;28;20252;-47
2022/08/01 06:08:25;;;;;;;3.60;2.70;;;26.40;40.20;;;;;;5012204;28;20406;-48
2022/08/01 06:10:51;;;;;;;2.87;1.80;;;26.40;40.30;;;;;;5012162;28;20540;-48
2022/08/01 06:13:18;;;;;;;2.90;2.27;;;26.40;40.50;;;;;;5012068;28;20461;-47
2022/08/01 06:15:44;;;;;;;3.13;2.80;;;26.40;40.20;;;;;;5011765;28;20214;-48
2022/08/01 06:18:10;;;;;;;4.70;2.43;;;26.40;40.40;;;;;;5012157;28;20540;-47
2022/08/01 06:20:36;;;;;;;5.77;1.97;;;26.40;40.50;;;;;;4994546;28;20658;-47
2022/08/01 06:23:01;;;;;;;2.87;2.07;;;26.50;40.40;;;;;;5012000;28;20182;-47
2022/08/01 06:25:27;;;;;;;4.07;2.83;;;26.40;40.20;;;;;;5011959;28;20273;-48
2022/08/01 06:27:53;;;;;;;2.93;2.20;;;26.50;40.60;;;;;;5012072;28;20270;-48
2022/08/01 06:30:19;;;;;;;3.40;2.80;;;26.40;40.30;;;;;;5012288;28;20905;-47
2022/08/01 06:32:45;;;;;;;3.00;2.47;;;26.50;41.00;;;;;;5011893;28;20453;-47
2022/08/01 06:35:11;;;;;;;3.37;2.40;;;26.40;40.50;;;;;;5012006;28;20425;-47
2022/08/01 06:37:37;;;;;;;3.07;1.87;;;26.40;40.60;;;;;;4994028;28;20418;-48
2022/08/01 06:40:08;;;;;;;2.73;2.10;;;26.40;40.90;;;;;;5011959;28;20179;-48
2022/08/01 06:42:37;;;;;;;3.73;2.40;;;26.40;40.80;;;;;;5012104;28;20538;-47
2022/08/01 06:45:08;;;;;;;5.13;2.40;;;26.40;41.20;;;;;;5012062;28;20571;-46
2022/08/01 06:47:33;;;;;;;3.70;1.67;;;26.30;41.10;;;;;;5015485;28;20397;-47
2022/08/01 06:49:59;;;;;;;2.40;1.63;;;26.30;41.70;;;;;;5015517;28;20548;-47
2022/08/01 06:52:26;;;;;;;2.83;1.80;;;26.30;41.70;;;;;;5015888;28;20456;-47
2022/08/01 06:54:52;;;;;;;3.43;1.80;;;26.30;42.00;;;;;;5015585;28;20429;-47
2022/08/01 06:57:17;;;;;;;2.30;1.50;;;26.30;42.70;;;;;;5015304;28;20480;-48
2022/08/01 06:59:43;;;;;;;2.90;2.00;;;26.30;43.60;;;;;;5015501;28;20443;-46
2022/08/01 07:02:09;;;;;;;3.47;2.30;;;26.30;44.20;;;;;;5015281;28;20650;-47
2022/08/01 07:04:35;;;;;;;3.13;2.20;;;26.20;44.30;;;;;;5015169;28;20420;-48
2022/08/01 07:07:01;;;;;;;3.80;2.43;;;26.10;45.00;;;;;;5014986;28;20209;-48
2022/08/01 07:09:27;;;;;;;3.37;3.00;;;26.00;45.40;;;;;;5015495;28;20457;-49
2022/08/01 07:11:54;;;;;;;3.67;2.70;;;25.90;45.20;;;;;;5015010;28;20198;-48
2022/08/01 07:14:21;;;;;;;3.97;3.40;;;25.80;45.40;;;;;;4997811;28;20412;-46
2022/08/01 07:16:47;;;;;;;7.27;2.80;;;25.80;45.60;;;;;;5014660;28;20456;-48
2022/08/01 07:19:13;;;;;;;4.13;2.27;;;25.80;45.90;;;;;;5022180;23;20488;-45
2022/08/01 07:21:39;;;;;;;4.67;3.57;;;25.70;46.00;;;;;;5014919;28;20432;-45
2022/08/01 07:24:10;;;;;;;3.13;2.40;;;25.70;46.20;;;;;;5015040;28;20406;-45
2022/08/01 07:26:36;;;;;;;4.07;2.77;;;25.70;46.40;;;;;;5014625;28;20398;-45
2022/08/01 07:29:02;;;;;;;3.60;2.90;;;25.70;46.30;;;;;;5014733;28;20864;-47
2022/08/01 07:31:29;;;;;;;3.13;2.37;;;25.70;46.60;;;;;;5014748;28;20547;-44
2022/08/01 07:33:54;;;;;;;3.40;3.00;;;25.70;46.40;;;;;;5014960;28;20463;-45
2022/08/01 07:36:20;;;;;;;3.77;2.90;;;25.70;46.90;;;;;;5014689;28;20405;-44
2022/08/01 07:38:47;;;;;;;4.30;2.93;;;25.70;47.00;;;;;;5014688;28;20202;-46
2022/08/01 07:41:13;;;;;;;3.20;2.70;;;25.70;47.10;;;;;;5014652;28;20402;-45
2022/08/01 07:43:40;;;;;;;3.80;2.90;;;25.70;46.90;;;;;;5014668;28;20410;-45
2022/08/01 07:46:06;;;;;;;4.20;3.03;;;25.70;47.40;;;;;;5014308;28;20501;-45
2022/08/01 07:48:32;;;;;;;3.63;3.10;;;25.80;46.90;;;;;;5014438;28;20893;-44
2022/08/01 07:50:58;;;;;;;3.37;3.03;;;25.80;47.30;;;;;;5014503;28;20487;-45
2022/08/01 07:53:24;;;;;;;10.60;4.33;;;25.80;47.30;;;;;;5014301;28;20453;-45
2022/08/01 07:55:50;;;;;;;3.13;2.43;;;25.80;47.10;;;;;;5014043;28;20166;-44
2022/08/01 07:58:16;;;;;;;3.53;2.93;;;25.90;47.30;;;;;;5013297;28;20405;-45
2022/08/01 08:00:43;;;;;;;3.33;2.73;;;25.90;47.30;;;;;;5014491;28;20197;-44
2022/08/01 08:03:09;;;;;;;3.27;2.70;;;26.00;48.00;;;;;;5014289;28;20833;-45
2022/08/01 08:05:35;;;;;;;3.90;3.20;;;26.10;47.60;;;;;;5014256;28;20777;-46
2022/08/01 08:08:02;;;;;;;4.70;2.87;;;26.20;47.30;;;;;;5014230;28;20437;-45
2022/08/01 08:10:28;;;;;;;4.07;3.30;;;26.20;47.10;;;;;;5014083;28;20479;-45
2022/08/01 08:12:54;;;;;;;4.83;2.57;;;26.20;47.10;;;;;;5014364;28;20445;-45
2022/08/01 08:15:20;;;;;;;4.47;2.50;;;26.30;46.90;;;;;;5014577;28;20232;-50
2022/08/01 08:17:45;;;;;;;3.53;2.70;;;26.30;47.00;;;;;;5013867;28;20178;-47
2022/08/01 08:20:11;;;;;;;3.00;2.50;;;26.40;46.70;;;;;;5013865;28;20453;-47
2022/08/01 08:22:38;;;;;;;3.13;2.20;;;26.40;46.90;;;;;;5014242;28;20190;-46
2022/08/01 08:25:04;;;;;;;4.20;2.63;;;26.50;46.70;;;;;;5013982;28;20410;-48
2022/08/01 08:27:30;;;;;;;3.30;2.03;;;26.50;46.70;;;;;;5014113;28;20405;-48
2022/08/01 08:29:56;;;;;;;2.80;2.33;;;26.60;46.50;;;;;;5013832;28;20885;-47
2022/08/01 08:32:22;;;;;;;3.13;2.20;;;26.70;46.30;;;;;;5013916;28;20464;-47
2022/08/01 08:34:48;;;;;;;2.60;1.60;;;26.80;46.40;;;;;;5013847;28;20175;-47
2022/08/01 08:37:14;;;;;;;4.20;2.07;;;26.90;46.20;;;;;;5013416;28;20657;-47
2022/08/01 08:39:41;;;;;;;3.03;1.73;;;27.00;46.50;;;;;;5013505;28;20193;-48
2022/08/01 08:42:08;;;;;;;3.03;1.97;;;27.00;46.10;;;;;;5013420;28;20201;-48
2022/08/01 08:44:33;;;;;;;3.00;2.27;;;27.00;46.50;;;;;;5013729;28;20414;-47
2022/08/01 08:47:05;;;;;;;4.53;1.70;;;27.00;45.70;;;;;;5013212;28;20820;-47
2022/08/01 08:49:32;;;;;;;2.70;1.70;;;27.00;45.70;;;;;;5013343;28;20556;-48
2022/08/01 08:51:59;;;;;;;6.13;2.03;;;27.00;45.80;;;;;;5013315;28;20533;-48
2022/08/01 08:54:26;;;;;;;5.60;2.37;;;27.10;45.90;;;;;;5013231;28;20460;-46
2022/08/01 08:56:53;;;;;;;2.60;1.83;;;27.20;45.60;;;;;;5012929;28;20429;-47
2022/08/01 08:59:20;;;;;;;2.70;1.67;;;27.30;45.20;;;;;;5013363;28;20520;-48
2022/08/01 09:01:47;;;;;;;2.60;1.70;;;27.30;45.30;;;;;;5013192;28;20493;-47
2022/08/01 09:04:13;;;;;;;2.50;1.70;;;27.40;45.00;;;;;;5013140;28;20414;-48
2022/08/01 09:06:39;;;;;;;2.87;2.03;;;27.50;44.40;;;;;;5012893;28;20398;-49
2022/08/01 09:09:09;;;;;;;2.37;1.50;;;27.60;44.10;;;;;;5012608;28;20422;-49
2022/08/01 09:11:36;;;;;;;2.50;1.63;;;27.70;44.10;;;;;;5013019;28;20405;-48
2022/08/01 09:14:08;;;;;;;3.80;1.77;;;27.70;43.90;;;;;;5012935;28;20402;-47
2022/08/01 09:16:35;;;;;;;2.23;1.53;;;27.80;44.20;;;;;;5013030;28;20378;-48
2022/08/01 09:19:16;;;;;;;2.77;1.70;;;28.00;44.00;;;;;;5012675;28;20528;-49
2022/08/01 09:22:00;;;;;;;2.50;1.80;;;28.10;43.50;;;;;;5012848;28;20402;-48
2022/08/01 09:24:28;;;;;;;2.63;1.60;;;28.20;43.10;;;;;;5012773;28;20459;-47
2022/08/01 09:26:55;;;;;;;2.50;1.63;;;28.20;42.70;;;;;;5012636;28;20429;-47
2022/08/01 09:29:25;;;;;;;2.50;2.00;;;28.30;42.70;;;;;;5012628;28;20512;-48
2022/08/01 09:31:51;;;;;;;2.90;2.20;;;28.50;42.80;;;;;;5012615;28;20445;-48
2022/08/01 09:34:28;;;;;;;3.30;2.30;;;28.70;43.00;;;;;;5012885;28;20413;-48
2022/08/01 09:36:56;;;;;;;2.70;1.90;;;28.80;42.30;;;;;;5012527;28;20405;-49
2022/08/01 09:39:27;;;;;;;2.80;2.00;;;28.90;42.20;;;;;;5012487;28;20417;-48
2022/08/01 09:41:55;;;;;;;3.87;2.53;;;29.00;42.40;;;;;;5012557;28;20500;-47
2022/08/01 09:44:41;;;;;;;2.90;2.20;;;29.10;41.40;;;;;;5012739;28;20410;-48
2022/08/01 09:47:07;;;;;;;6.43;1.90;;;29.10;41.00;;;;;;5012247;28;20429;-46
2022/08/01 09:49:35;;;;;;;3.27;1.80;;;29.10;40.90;;;;;;5012549;28;20471;-47
2022/08/01 09:52:16;;;;;;;2.43;1.67;;;29.10;40.70;;;;;;5012270;28;20449;-46
2022/08/01 09:54:50;;;;;;;2.63;1.53;;;29.20;40.10;;;;;;5012443;28;20488;-46
2022/08/01 09:57:18;;;;;;;2.10;1.30;;;29.20;39.80;;;;;;5012418;28;20571;-45
2022/08/01 09:59:47;;;;;;;2.50;1.80;;;29.30;39.50;;;;;;5012281;28;20484;-45
2022/08/01 10:02:26;;;;;;;2.40;1.90;;;29.50;39.90;;;;;;5012279;28;20441;-45
2022/08/01 10:04:52;;;;;;;2.33;1.67;;;29.70;39.20;;;;;;5012330;28;20889;-45
2022/08/01 10:07:18;;;;;;;2.20;1.40;;;29.80;38.40;;;;;;5011909;28;20409;-45
2022/08/01 10:09:46;;;;;;;2.10;1.27;;;29.70;38.60;;;;;;5012190;28;20199;-45
2022/08/01 10:12:18;;;;;;;2.30;1.60;;;29.70;37.40;;;;;;5012280;28;20461;-45
2022/08/01 10:14:46;;;;;;;2.00;1.40;;;29.60;37.70;;;;;;5012181;28;20406;-46
2022/08/01 10:17:14;;;;;;;2.73;1.50;;;29.60;38.30;;;;;;5012019;28;20409;-45
2022/08/01 10:19:41;;;;;;;3.30;1.60;;;29.50;38.00;;;;;;5012025;28;20450;-46
2022/08/01 10:22:17;;;;;;;2.17;1.47;;;29.40;38.10;;;;;;5015950;28;20408;-47
2022/08/01 10:24:46;;;;;;;3.50;1.57;;;29.40;38.30;;;;;;5016420;28;20393;-45
2022/08/01 10:27:16;;;;;;;2.07;1.43;;;29.40;38.40;;;;;;5015814;28;20428;-46
2022/08/01 10:29:48;;;;;;;2.00;1.10;;;29.50;38.90;;;;;;5016050;28;20495;-45
2022/08/01 10:32:14;;;;;;;2.30;1.50;;;29.60;39.10;;;;;;5016015;28;20782;-46
2022/08/01 10:34:40;;;;;;;2.07;1.20;;;29.70;38.20;;;;;;5015846;28;20417;-45
2022/08/01 10:37:07;;;;;;;2.40;1.40;;;29.70;38.10;;;;;;5015559;28;20505;-45
2022/08/01 10:39:33;;;;;;;3.03;1.30;;;29.70;38.40;;;;;;5015861;28;20425;-45
2022/08/01 10:42:00;;;;;;;2.20;1.40;;;29.80;38.20;;;;;;5016059;28;20533;-46
2022/08/01 10:44:28;;;;;;;2.20;1.43;;;29.80;38.50;;;;;;5015850;28;20508;-46
2022/08/01 10:47:08;;;;;;;3.27;1.27;;;29.90;38.20;;;;;;5015493;28;20489;-45
2022/08/01 10:49:57;;;;;;;2.10;1.10;;;30.00;38.00;;;;;;5015846;28;20785;-46
2022/08/01 10:52:22;;;;;;;4.37;1.10;;;30.10;37.60;;;;;;4998232;28;20476;-46
2022/08/01 10:54:48;;;;;;;2.30;1.00;;;30.00;37.30;;;;;;5015737;28;20897;-45
2022/08/01 10:57:14;;;;;;;2.20;1.10;;;30.00;37.70;;;;;;5015367;28;20529;-46
2022/08/01 10:59:51;;;;;;;2.00;1.30;;;30.00;37.50;;;;;;5015596;28;20191;-46
2022/08/01 11:02:33;;;;;;;3.30;1.23;;;29.90;37.20;;;;;;5015588;28;20488;-46
2022/08/01 11:05:10;;;;;;;2.00;0.90;;;29.90;37.80;;;;;;5015353;28;20440;-46
2022/08/01 11:07:45;;;;;;;1.83;0.70;;;29.80;37.30;;;;;;5015137;28;20907;-46
2022/08/01 11:10:20;;;;;;;1.90;0.87;;;29.80;37.60;;;;;;5015494;28;20441;-46
2022/08/01 11:12:46;;;;;;;1.87;0.90;;;29.90;37.80;;;;;;5015343;28;20491;-45
2022/08/01 11:15:11;;;;;;;1.90;0.87;;;30.00;38.20;;;;;;5015109;28;20891;-46
2022/08/01 11:17:48;;;;;;;1.70;0.73;;;30.10;38.00;;;;;;5015062;28;20463;-47
2022/08/01 11:20:16;;;;;;;1.93;0.80;;;30.20;37.70;;;;;;5014978;28;20210;-46
2022/08/01 11:23:00;;;;;;;1.50;0.50;;;30.10;37.70;;;;;;5015023;28;20476;-46
2022/08/01 11:25:47;;;;;;;1.73;0.77;;;30.20;37.90;;;;;;5014879;28;20414;-45
2022/08/01 11:28:24;;;;;;;1.70;0.70;;;30.30;38.00;;;;;;4998719;28;20418;-46
2022/08/01 11:30:50;;;;;;;2.27;0.93;;;30.30;37.70;;;;;;5014839;28;20429;-46
2022/08/01 11:33:18;;;;;;;1.80;0.80;;;30.50;38.40;;;;;;5014660;28;20449;-45
2022/08/01 11:36:11;;;;;;;1.90;0.60;;;30.80;37.20;;;;;;5014576;28;20650;-46
2022/08/01 11:38:45;;;;;;;1.77;0.83;;;31.10;37.40;;;;;;5014598;28;20402;-46
2022/08/01 11:41:11;;;;;;;1.87;0.70;;;31.40;36.70;;;;;;5014610;28;20965;-46
2022/08/01 11:44:01;;;;;;;5.87;0.80;;;31.40;35.60;;;;;;4997063;28;20533;-47
2022/08/01 11:46:54;;;;;;;2.07;0.90;;;31.30;34.90;;;;;;5014462;28;20413;-45
2022/08/01 11:49:34;;;;;;;2.10;1.00;;;31.10;35.20;;;;;;5014472;28;20793;-45
2022/08/01 11:52:19;;;;;;;1.80;0.67;;;30.80;35.40;;;;;;5014623;28;20473;-45
2022/08/01 11:54:52;;;;;;;2.13;0.70;;;30.60;35.90;;;;;;5014460;28;20904;-46
2022/08/01 11:57:21;;;;;;;2.00;0.80;;;30.40;36.40;;;;;;5014521;28;20405;-45
2022/08/01 11:59:55;;;;;;;3.30;0.90;;;30.30;36.70;;;;;;5014565;28;20429;-46
2022/08/01 12:02:33;;;;;;;2.03;1.03;;;30.10;36.90;;;;;;5014534;28;20825;-46
2022/08/01 12:05:08;;;;;;;2.27;0.90;;;30.00;37.00;;;;;;5014241;28;20418;-46
2022/08/01 12:07:38;;;;;;;1.90;0.83;;;30.00;37.40;;;;;;5014331;28;20428;-45
2022/08/01 12:10:10;;;;;;;1.80;0.63;;;30.00;37.70;;;;;;5014380;28;20426;-44
2022/08/01 12:12:41;;;;;;;2.17;0.97;;;30.10;37.40;;;;;;5013878;28;20825;-46
2022/08/01 12:15:09;;;;;;;1.90;0.87;;;30.20;37.30;;;;;;5014112;28;20389;-45
2022/08/01 12:17:40;;;;;;;2.30;0.90;;;30.30;37.20;;;;;;5013858;28;20402;-44
2022/08/01 12:20:09;;;;;;;1.77;0.70;;;30.40;37.10;;;;;;5013808;28;20441;-46
2022/08/01 12:22:35;;;;;;;2.47;1.20;;;30.40;36.50;;;;;;5013910;28;20405;-45
2022/08/01 12:25:08;;;;;;;2.63;0.80;;;30.40;36.20;;;;;;5013917;28;20814;-45
2022/08/01 12:27:36;;;;;;;2.33;1.13;;;30.20;36.40;;;;;;5013560;28;20414;-47
2022/08/01 12:30:09;;;;;;;2.27;1.00;;;30.10;36.70;;;;;;5013981;28;20429;-47
2022/08/01 12:32:37;;;;;;;1.90;0.90;;;30.10;36.50;;;;;;5013807;28;20453;-44
2022/08/01 12:35:09;;;;;;;3.23;1.03;;;30.10;36.80;;;;;;5013692;28;20429;-45
2022/08/01 12:37:46;;;;;;;2.73;1.13;;;30.20;37.00;;;;;;5013435;28;20876;-45
2022/08/01 12:40:24;;;;;;;1.80;0.70;;;30.60;37.10;;;;;;5013776;28;20435;-45
2022/08/01 12:42:52;;;;;;;1.70;0.80;;;31.00;36.00;;;;;;5012992;28;20401;-45
2022/08/01 12:45:30;;;;;;;1.87;0.80;;;31.40;36.20;;;;;;5013403;28;20452;-46
2022/08/01 12:47:59;;;;;;;2.67;0.80;;;31.80;35.40;;;;;;5013505;28;20443;-46
2022/08/01 12:50:30;;;;;;;1.90;0.90;;;32.10;34.60;;;;;;5013528;28;20433;-46
2022/08/01 12:52:56;;;;;;;2.10;0.90;;;32.20;34.00;;;;;;5013272;28;20441;-45
2022/08/01 12:55:24;;;;;;;1.90;0.67;;;32.20;33.50;;;;;;5013302;28;20406;-47
2022/08/01 12:58:11;;;;;;;2.40;1.20;;;32.20;33.70;;;;;;5013126;28;20410;-47